createdAt,value
2023-03-05T00:01:33.718Z,4.18
2023-03-05T00:04:02.485Z,3.85
2023-03-05T00:06:31.480Z,5.18
2023-03-05T00:08:59.172Z,4.07
2023-03-05T00:11:30.090Z,3.40
2023-03-05T00:13:58.716Z,3.67
2023-03-05T00:16:27.315Z,4.10
2023-03-05T00:18:56.592Z,3.42
2023-03-05T00:21:39.325Z,3.60
2023-03-05T00:24:11.128Z,3.35
2023-03-05T00:26:39.273Z,2.70
2023-03-05T00:29:08.431Z,3.13
2023-03-05T00:31:36.776Z,3.42
2023-03-05T00:34:13.594Z,2.63
2023-03-05T00:36:43.097Z,3.00
2023-03-05T00:39:11.984Z,4.25
2023-03-05T00:41:39.563Z,3.08
2023-03-05T00:44:07.279Z,3.22
2023-03-05T00:46:34.782Z,3.40
2023-03-05T00:49:02.320Z,2.97
2023-03-05T00:51:29.643Z,2.78
2023-03-05T00:53:56.916Z,2.92
2023-03-05T00:56:24.399Z,3.85
2023-03-05T00:58:53.381Z,2.58
2023-03-05T01:01:20.815Z,2.55
2023-03-05T01:03:48.181Z,2.92
2023-03-05T01:06:17.250Z,3.00
2023-03-05T01:08:45.671Z,2.58
2023-03-05T01:11:14.414Z,2.70
2023-03-05T01:13:41.924Z,3.25
2023-03-05T01:16:09.742Z,2.38
2023-03-05T01:18:38.277Z,4.10
2023-03-05T01:21:07.710Z,4.00
2023-03-05T01:23:37.477Z,4.60
2023-03-05T01:26:05.995Z,5.05
2023-03-05T01:28:33.277Z,4.40
2023-03-05T01:31:00.545Z,3.00
2023-03-05T01:33:27.795Z,3.45
2023-03-05T01:35:55.035Z,3.28
2023-03-05T01:38:22.412Z,2.90
2023-03-05T01:40:49.870Z,3.08
2023-03-05T01:43:30.507Z,3.10
2023-03-05T01:46:16.951Z,2.83
2023-03-05T01:48:49.699Z,3.63
2023-03-05T01:51:20.526Z,2.88
2023-03-05T01:53:48.061Z,3.90
2023-03-05T01:56:15.879Z,3.75
2023-03-05T01:58:44.264Z,2.50
2023-03-05T02:01:11.715Z,3.63
2023-03-05T02:03:40.310Z,3.20
2023-03-05T02:06:07.884Z,2.50
2023-03-05T02:08:35.110Z,2.83
2023-03-05T02:11:02.548Z,3.28
2023-03-05T02:13:33.065Z,2.75
2023-03-05T02:16:02.130Z,3.42
2023-03-05T02:18:29.361Z,2.40
2023-03-05T02:20:56.709Z,3.33
2023-03-05T02:23:30.594Z,3.42
2023-03-05T02:25:57.935Z,3.47
2023-03-05T02:28:34.766Z,3.70
2023-03-05T02:31:02.230Z,3.00
2023-03-05T02:33:29.717Z,3.47
2023-03-05T02:35:57.010Z,3.60
2023-03-05T02:38:24.374Z,3.97
2023-03-05T02:40:52.794Z,3.67
2023-03-05T02:43:20.065Z,3.72
2023-03-05T02:45:47.441Z,3.83
2023-03-05T02:48:14.956Z,4.07
2023-03-05T02:50:43.066Z,4.75
2023-03-05T02:53:10.498Z,4.78
2023-03-05T02:55:38.998Z,5.82
2023-03-05T02:58:06.486Z,6.53
2023-03-05T03:00:33.902Z,6.97
2023-03-05T03:03:01.319Z,6.18
2023-03-05T03:05:28.653Z,8.15
2023-03-05T03:07:56.039Z,5.05
2023-03-05T03:10:23.581Z,5.00
2023-03-05T03:12:50.859Z,4.90
2023-03-05T03:15:18.844Z,3.72
2023-03-05T03:17:46.616Z,6.43
2023-03-05T03:20:17.258Z,5.85
2023-03-05T03:22:46.451Z,5.65
2023-03-05T03:25:19.735Z,6.20
2023-03-05T03:27:47.143Z,7.05
2023-03-05T03:30:15.469Z,6.18
2023-03-05T03:32:43.001Z,6.63
2023-03-05T03:35:11.795Z,6.30
2023-03-05T03:37:39.424Z,5.40
2023-03-05T03:40:07.816Z,5.35
2023-03-05T03:42:35.295Z,5.32
2023-03-05T03:45:03.118Z,4.72
2023-03-05T03:47:31.362Z,4.13
2023-03-05T03:50:01.614Z,5.25
2023-03-05T03:52:28.794Z,3.65
2023-03-05T03:55:01.716Z,4.40
2023-03-05T03:57:31.074Z,3.97
2023-03-05T03:59:58.558Z,5.50
2023-03-05T04:02:26.541Z,4.13
2023-03-05T04:04:54.036Z,4.50
2023-03-05T04:07:21.396Z,4.70
2023-03-05T04:09:48.733Z,5.18
2023-03-05T04:12:18.424Z,4.43
2023-03-05T04:14:49.197Z,5.25
2023-03-05T04:17:17.104Z,5.70
2023-03-05T04:19:44.661Z,5.72
2023-03-05T04:22:13.976Z,4.63
2023-03-05T04:24:41.618Z,6.63
2023-03-05T04:27:09.253Z,4.95
2023-03-05T04:29:36.590Z,5.95
2023-03-05T04:32:04.402Z,5.85
2023-03-05T04:34:33.005Z,5.10
2023-03-05T04:37:00.444Z,5.05
2023-03-05T04:39:27.787Z,5.15
2023-03-05T04:41:55.095Z,5.82
2023-03-05T04:44:23.448Z,5.50
2023-03-05T04:46:50.790Z,5.43
2023-03-05T04:49:18.072Z,6.43
2023-03-05T04:51:45.296Z,5.95
2023-03-05T04:54:12.579Z,5.20
2023-03-05T04:56:39.909Z,5.32
2023-03-05T04:59:07.467Z,6.07
2023-03-05T05:01:35.657Z,4.95
2023-03-05T05:04:03.393Z,7.43
2023-03-05T05:06:30.726Z,7.05
2023-03-05T05:08:58.114Z,7.35
2023-03-05T05:11:25.408Z,6.88
2023-03-05T05:13:52.787Z,6.63
2023-03-05T05:16:20.391Z,5.93
2023-03-05T05:18:47.970Z,5.57
2023-03-05T05:21:15.750Z,6.55
2023-03-05T05:23:43.303Z,5.55
2023-03-05T05:26:14.453Z,8.02
2023-03-05T05:28:43.674Z,7.63
2023-03-05T05:31:14.583Z,7.88
2023-03-05T05:33:42.336Z,8.40
2023-03-05T05:36:13.218Z,7.40
2023-03-05T05:38:40.818Z,8.30
2023-03-05T05:41:11.882Z,7.00
2023-03-05T05:43:39.392Z,6.53
2023-03-05T05:46:10.832Z,6.35
2023-03-05T05:48:38.342Z,7.13
2023-03-05T05:51:11.725Z,6.88
2023-03-05T05:53:39.699Z,6.60
2023-03-05T05:56:09.444Z,7.70
2023-03-05T05:58:38.391Z,7.30
2023-03-05T06:01:18.501Z,8.00
2023-03-05T06:03:46.850Z,9.23
2023-03-05T06:06:16.858Z,8.25
2023-03-05T06:08:44.533Z,7.25
2023-03-05T06:11:12.735Z,8.25
2023-03-05T06:13:40.487Z,8.77
2023-03-05T06:16:11.524Z,8.65
2023-03-05T06:18:38.853Z,7.03
2023-03-05T06:21:09.522Z,7.72
2023-03-05T06:23:37.014Z,8.70
2023-03-05T06:26:06.754Z,9.35
2023-03-05T06:28:35.124Z,8.35
2023-03-05T06:31:31.873Z,7.15
2023-03-05T06:34:03.391Z,7.20
2023-03-05T06:36:31.597Z,6.60
2023-03-05T06:38:59.498Z,8.23
2023-03-05T06:41:29.466Z,7.70
2023-03-05T06:43:57.138Z,8.20
2023-03-05T06:46:27.867Z,7.05
2023-03-05T06:49:00.911Z,7.20
2023-03-05T06:51:31.163Z,7.13
2023-03-05T06:54:11.196Z,8.88
2023-03-05T06:56:41.300Z,5.93
2023-03-05T06:59:09.109Z,6.85
2023-03-05T07:01:36.679Z,6.93
2023-03-05T07:04:05.161Z,6.63
2023-03-05T07:06:34.533Z,7.50
2023-03-05T07:09:02.698Z,7.32
2023-03-05T07:11:30.365Z,6.55
2023-03-05T07:13:57.852Z,6.80
2023-03-05T07:16:27.400Z,6.35
2023-03-05T07:18:56.229Z,5.28
2023-03-05T07:21:29.860Z,6.18
2023-03-05T07:23:59.404Z,5.97
2023-03-05T07:26:27.701Z,5.85
2023-03-05T07:28:55.551Z,6.32
2023-03-05T07:31:27.575Z,6.18
2023-03-05T07:33:55.027Z,6.75
2023-03-05T07:36:22.224Z,5.68
2023-03-05T07:38:49.521Z,6.55
2023-03-05T07:41:19.989Z,5.05
2023-03-05T07:43:49.575Z,5.50
2023-03-05T07:46:19.134Z,6.07
2023-03-05T07:48:46.630Z,7.68
2023-03-05T07:51:17.158Z,6.47
2023-03-05T07:53:45.753Z,5.97
2023-03-05T07:56:13.779Z,5.13
2023-03-05T07:58:41.069Z,5.85
2023-03-05T08:01:16.269Z,7.13
2023-03-05T08:03:44.649Z,9.73
2023-03-05T08:06:13.007Z,8.32
2023-03-05T08:08:40.481Z,8.20
2023-03-05T08:11:10.510Z,8.60
2023-03-05T08:13:38.625Z,7.85
2023-03-05T08:16:08.310Z,8.35
2023-03-05T08:18:36.463Z,7.22
2023-03-05T08:21:04.695Z,7.55
2023-03-05T08:23:34.621Z,7.05
2023-03-05T08:26:01.862Z,9.68
2023-03-05T08:28:29.157Z,8.02
2023-03-05T08:30:56.626Z,7.13
2023-03-05T08:33:24.039Z,9.88
2023-03-05T08:35:51.365Z,7.10
2023-03-05T08:38:20.997Z,8.65
2023-03-05T08:40:48.775Z,8.63
2023-03-05T08:43:17.645Z,8.02
2023-03-05T08:45:45.354Z,9.77
2023-03-05T08:48:13.275Z,9.02
2023-03-05T08:50:41.190Z,9.90
2023-03-05T08:53:08.697Z,9.73
2023-03-05T08:55:36.826Z,11.48
2023-03-05T08:58:04.764Z,8.80
2023-03-05T09:00:34.802Z,13.40
2023-03-05T09:03:02.083Z,11.15
2023-03-05T09:05:29.655Z,10.50
2023-03-05T09:07:58.745Z,10.80
2023-03-05T09:10:26.012Z,11.30
2023-03-05T09:12:53.296Z,11.10
2023-03-05T09:15:20.581Z,11.65
2023-03-05T09:17:48.068Z,11.65
2023-03-05T09:20:15.919Z,10.77
2023-03-05T09:22:43.360Z,11.60
2023-03-05T09:25:12.405Z,12.55
2023-03-05T09:27:40.189Z,11.13
2023-03-05T09:30:08.153Z,12.65
2023-03-05T09:32:35.684Z,14.25
2023-03-05T09:35:03.527Z,13.40
2023-03-05T09:37:30.997Z,11.55
2023-03-05T09:39:59.351Z,11.82
2023-03-05T09:42:50.782Z,12.48
2023-03-05T09:45:41.216Z,11.63
2023-03-05T09:48:11.295Z,13.52
2023-03-05T09:50:46.491Z,16.73
2023-03-05T09:53:43.952Z,14.95
2023-03-05T09:56:15.577Z,16.08
2023-03-05T09:58:46.945Z,13.85
2023-03-05T10:01:23.573Z,15.63
2023-03-05T10:04:01.888Z,14.50
2023-03-05T10:06:37.861Z,12.70
2023-03-05T10:09:31.215Z,14.93
2023-03-05T10:12:21.141Z,14.55
2023-03-05T10:14:49.219Z,15.52
2023-03-05T10:17:25.600Z,14.63
2023-03-05T10:20:03.056Z,16.05
2023-03-05T10:23:04.709Z,18.17
2023-03-05T10:26:03.885Z,16.65
2023-03-05T10:28:35.981Z,17.42
2023-03-05T10:31:08.781Z,18.50
2023-03-05T10:33:59.100Z,14.65
2023-03-05T10:36:41.685Z,17.98
2023-03-05T10:39:21.238Z,14.55
2023-03-05T10:41:57.037Z,17.58
2023-03-05T10:44:50.034Z,16.33
2023-03-05T10:47:23.332Z,18.67
2023-03-05T10:49:53.174Z,14.95
2023-03-05T10:52:36.807Z,15.15
2023-03-05T10:55:18.736Z,14.73
2023-03-05T10:57:46.107Z,16.02
2023-03-05T11:00:28.132Z,15.57
2023-03-05T11:03:15.608Z,15.18
2023-03-05T11:05:47.141Z,16.23
2023-03-05T11:08:31.658Z,14.27
2023-03-05T11:11:13.112Z,14.88
2023-03-05T11:14:02.499Z,15.27
2023-03-05T11:16:32.889Z,15.27
2023-03-05T11:19:15.478Z,15.27
2023-03-05T11:21:44.637Z,19.15
2023-03-05T11:24:19.669Z,18.05
2023-03-05T11:26:58.314Z,16.45
2023-03-05T11:29:32.382Z,15.48
2023-03-05T11:32:23.155Z,16.08
2023-03-05T11:34:51.316Z,16.58
2023-03-05T11:37:36.964Z,18.80
2023-03-05T11:40:22.730Z,16.33
2023-03-05T11:42:56.024Z,17.45
2023-03-05T11:45:25.213Z,15.55
2023-03-05T11:48:00.600Z,14.40
2023-03-05T11:50:33.645Z,17.20
2023-03-05T11:53:07.800Z,17.50
2023-03-05T11:56:00.035Z,18.05
2023-03-05T11:58:41.098Z,18.63
2023-03-05T12:01:23.894Z,18.77
2023-03-05T12:03:52.767Z,18.92
2023-03-05T12:06:36.615Z,21.48
2023-03-05T12:09:13.644Z,20.25
2023-03-05T12:11:41.381Z,20.27
2023-03-05T12:14:17.851Z,20.75
2023-03-05T12:17:10.048Z,20.77
2023-03-05T12:19:52.262Z,19.92
2023-03-05T12:22:22.948Z,16.20
2023-03-05T12:24:51.269Z,17.52
2023-03-05T12:27:40.182Z,18.73
2023-03-05T12:30:50.281Z,19.08
2023-03-05T12:33:34.210Z,17.75
2023-03-05T12:36:23.359Z,18.97
2023-03-05T12:38:57.732Z,16.33
2023-03-05T12:44:20.967Z,16.42
2023-03-05T12:47:17.896Z,16.20
2023-03-05T12:49:47.225Z,16.00
2023-03-05T12:52:26.691Z,14.20
2023-03-05T12:55:21.197Z,13.48
2023-03-05T12:57:53.760Z,15.02
2023-03-05T13:00:45.068Z,14.85
2023-03-05T13:03:23.730Z,13.82
2023-03-05T13:05:53.947Z,16.80
2023-03-05T13:08:24.069Z,12.57
2023-03-05T13:11:18.228Z,15.82
2023-03-05T13:13:47.841Z,12.38
2023-03-05T13:16:38.910Z,13.13
2023-03-05T13:19:16.621Z,10.80
2023-03-05T13:21:44.336Z,13.48
2023-03-05T13:24:20.056Z,12.93
2023-03-05T13:26:47.571Z,12.32
2023-03-05T13:29:17.855Z,12.63
2023-03-05T13:31:52.430Z,11.38
2023-03-05T13:34:32.016Z,11.23
2023-03-05T13:37:05.654Z,11.00
2023-03-05T13:39:47.555Z,9.35
2023-03-05T13:42:28.766Z,9.23
2023-03-05T13:44:58.738Z,9.73
2023-03-05T13:47:28.796Z,8.88
2023-03-05T13:50:01.497Z,8.27
2023-03-05T13:52:34.009Z,10.40
2023-03-05T13:55:02.329Z,9.02
2023-03-05T13:57:38.691Z,9.38
2023-03-05T14:00:25.819Z,10.38
2023-03-05T14:02:55.037Z,8.55
2023-03-05T14:05:23.021Z,8.52
2023-03-05T14:07:51.886Z,8.82
2023-03-05T14:10:35.693Z,10.90
2023-03-05T14:13:11.492Z,10.07
2023-03-05T14:15:39.909Z,7.90
2023-03-05T14:18:13.308Z,7.53
2023-03-05T14:21:01.563Z,8.60
2023-03-05T14:23:37.081Z,7.03
2023-03-05T14:26:37.769Z,7.07
2023-03-05T14:29:11.572Z,7.20
2023-03-05T14:32:19.128Z,9.13
2023-03-05T14:34:58.631Z,7.68
2023-03-05T14:37:35.891Z,7.38
2023-03-05T14:40:19.631Z,7.80
2023-03-05T14:42:56.641Z,7.28
2023-03-05T14:45:37.491Z,7.65
2023-03-05T14:48:07.622Z,7.47
2023-03-05T14:50:39.298Z,8.85
2023-03-05T14:53:16.622Z,8.52
2023-03-05T14:55:48.925Z,8.10
2023-03-05T14:58:21.989Z,8.23
2023-03-05T15:00:51.285Z,7.82
2023-03-05T15:03:20.884Z,9.50
2023-03-05T15:05:51.506Z,6.80
2023-03-05T15:08:23.383Z,7.13
2023-03-05T15:10:51.684Z,9.88
2023-03-05T15:13:22.120Z,7.00
2023-03-05T15:15:51.473Z,8.30
2023-03-05T15:18:20.748Z,7.80
2023-03-05T15:20:49.334Z,7.35
2023-03-05T15:23:16.774Z,8.05
2023-03-05T15:25:44.151Z,7.85
2023-03-05T15:28:11.667Z,7.15
2023-03-05T15:30:46.367Z,7.55
2023-03-05T15:33:16.674Z,9.30
2023-03-05T15:35:44.469Z,7.47
2023-03-05T15:38:12.156Z,8.85
2023-03-05T15:40:39.560Z,8.55
2023-03-05T15:43:07.118Z,8.35
2023-03-05T15:45:34.582Z,7.18
2023-03-05T15:48:02.104Z,8.10
2023-03-05T15:50:29.517Z,6.55
2023-03-05T15:52:58.271Z,7.65
2023-03-05T15:55:26.283Z,7.03
2023-03-05T15:57:54.599Z,5.30
2023-03-05T16:00:32.598Z,5.93
2023-03-05T16:03:00.096Z,6.57
2023-03-05T16:05:27.884Z,8.50
2023-03-05T16:07:57.382Z,8.90
2023-03-05T16:10:27.268Z,7.90
2023-03-05T16:13:09.788Z,6.57
2023-03-05T16:15:40.768Z,8.77
2023-03-05T16:18:14.732Z,8.45
2023-03-05T16:20:44.270Z,8.45
2023-03-05T16:23:12.080Z,8.23
2023-03-05T16:25:39.937Z,7.65
2023-03-05T16:28:07.792Z,7.35
2023-03-05T16:30:35.805Z,8.43
2023-03-05T16:33:04.678Z,9.15
2023-03-05T16:35:33.190Z,7.32
2023-03-05T16:38:01.539Z,6.97
2023-03-05T16:40:51.406Z,6.90
2023-03-05T16:43:19.163Z,7.03
2023-03-05T16:45:47.119Z,5.40
2023-03-05T16:48:15.092Z,6.63
2023-03-05T16:50:42.775Z,7.10
2023-03-05T16:53:10.990Z,7.63
2023-03-05T16:55:39.661Z,7.13
2023-03-05T16:58:07.384Z,5.47
2023-03-05T17:00:36.698Z,5.97
2023-03-05T17:03:04.941Z,5.68
2023-03-05T17:05:35.230Z,5.22
2023-03-05T17:08:04.335Z,5.35
2023-03-05T17:10:32.127Z,5.88
2023-03-05T17:13:00.987Z,5.10
2023-03-05T17:15:28.519Z,5.88
2023-03-05T17:17:55.780Z,5.90
2023-03-05T17:20:23.235Z,4.43
2023-03-05T17:22:50.506Z,3.80
2023-03-05T17:25:18.467Z,3.65
2023-03-05T17:27:45.895Z,3.58
2023-03-05T17:30:14.929Z,5.35
2023-03-05T17:32:43.875Z,4.32
2023-03-05T17:35:19.260Z,4.97
2023-03-05T17:37:48.132Z,3.95
2023-03-05T17:40:16.415Z,3.97
2023-03-05T17:42:43.875Z,3.88
2023-03-05T17:45:11.908Z,4.90
2023-03-05T17:47:39.271Z,4.82
2023-03-05T17:50:08.160Z,3.70
2023-03-05T17:52:39.564Z,3.38
2023-03-05T17:55:10.286Z,3.33
2023-03-05T17:57:41.699Z,3.78
2023-03-05T18:00:14.836Z,3.80
2023-03-05T18:02:42.247Z,3.53
2023-03-05T18:05:11.498Z,3.50
2023-03-05T18:07:39.188Z,3.28
2023-03-05T18:10:08.210Z,2.67
2023-03-05T18:12:36.335Z,3.20
2023-03-05T18:15:07.167Z,3.17
2023-03-05T18:17:34.778Z,3.38
2023-03-05T18:20:04.106Z,3.55
2023-03-05T18:22:31.949Z,3.38
2023-03-05T18:24:59.514Z,3.00
2023-03-05T18:27:27.198Z,2.40
2023-03-05T18:29:54.706Z,3.15
2023-03-05T18:32:24.422Z,2.80
2023-03-05T18:34:52.006Z,3.03
2023-03-05T18:37:19.335Z,2.40
2023-03-05T18:39:46.727Z,2.35
2023-03-05T18:42:15.036Z,2.38
2023-03-05T18:44:43.205Z,3.65
2023-03-05T18:47:12.596Z,2.45
2023-03-05T18:49:40.270Z,2.30
2023-03-05T18:52:07.526Z,2.15
2023-03-05T18:54:34.866Z,2.60
2023-03-05T18:57:02.152Z,2.42
2023-03-05T18:59:30.315Z,2.92
2023-03-05T19:01:57.625Z,2.55
2023-03-05T19:04:24.957Z,3.00
2023-03-05T19:06:52.184Z,2.58
2023-03-05T19:09:29.044Z,3.85
2023-03-05T19:11:56.391Z,2.67
2023-03-05T19:14:23.903Z,1.92
2023-03-05T19:16:51.170Z,1.98
2023-03-05T19:19:25.559Z,3.08
2023-03-05T19:21:59.852Z,1.85
2023-03-05T19:24:31.620Z,1.75
2023-03-05T19:27:01.221Z,3.03
2023-03-05T19:29:33.193Z,2.50
2023-03-05T19:32:00.729Z,2.53
2023-03-05T19:34:28.104Z,3.63
2023-03-05T19:36:55.485Z,2.10
2023-03-05T19:39:22.943Z,2.60
2023-03-05T19:41:50.268Z,3.35
2023-03-05T19:44:19.416Z,3.05
2023-03-05T19:46:48.662Z,3.10
2023-03-05T19:49:18.364Z,4.68
2023-03-05T19:51:46.575Z,3.85
2023-03-05T19:54:16.143Z,3.95
2023-03-05T19:56:44.971Z,3.60
2023-03-05T19:59:16.496Z,4.45
2023-03-05T20:01:45.900Z,3.97
2023-03-05T20:04:15.947Z,3.60
2023-03-05T20:06:43.626Z,3.20
2023-03-05T20:09:11.976Z,3.50
2023-03-05T20:11:40.360Z,3.88
2023-03-05T20:14:09.342Z,3.83
2023-03-05T20:16:44.871Z,3.15
2023-03-05T20:19:20.132Z,3.55
2023-03-05T20:21:47.553Z,4.15
2023-03-05T20:24:17.197Z,3.78
2023-03-05T20:26:45.947Z,3.40
2023-03-05T20:29:17.504Z,3.65
2023-03-05T20:31:45.990Z,4.43
2023-03-05T20:34:16.770Z,3.92
2023-03-05T20:36:44.642Z,4.97
2023-03-05T20:39:12.136Z,4.25
2023-03-05T20:41:40.243Z,4.22
2023-03-05T20:44:08.608Z,3.80
2023-03-05T20:46:40.100Z,4.00
2023-03-05T20:49:07.564Z,3.03
2023-03-05T20:51:37.903Z,3.53
2023-03-05T20:54:08.798Z,5.50
2023-03-05T20:56:37.757Z,4.18
2023-03-05T20:59:08.948Z,3.70
2023-03-05T21:01:40.571Z,3.97
2023-03-05T21:04:08.960Z,4.30
2023-03-05T21:06:37.105Z,3.95
2023-03-05T21:09:04.835Z,4.18
2023-03-05T21:11:32.400Z,3.20
2023-03-05T21:13:59.871Z,3.63
2023-03-05T21:16:28.341Z,3.75
2023-03-05T21:18:57.324Z,4.07
2023-03-05T21:21:25.462Z,4.57
2023-03-05T21:23:53.577Z,4.13
2023-03-05T21:26:23.404Z,5.22
2023-03-05T21:28:51.107Z,4.03
2023-03-05T21:31:21.488Z,4.50
2023-03-05T21:33:49.392Z,4.47
2023-03-05T21:36:18.870Z,4.28
2023-03-05T21:38:50.106Z,4.75
2023-03-05T21:41:18.308Z,4.45
2023-03-05T21:43:45.713Z,3.95
2023-03-05T21:46:13.361Z,3.80
2023-03-05T21:48:40.909Z,3.42
2023-03-05T21:51:08.955Z,4.07
2023-03-05T21:53:36.613Z,3.58
2023-03-05T21:56:22.732Z,3.55
2023-03-05T21:58:50.377Z,3.65
2023-03-05T22:01:19.532Z,3.78
2023-03-05T22:03:48.325Z,4.07
2023-03-05T22:06:17.278Z,4.03
2023-03-05T22:08:44.945Z,5.30
2023-03-05T22:11:14.617Z,3.83
2023-03-05T22:13:43.078Z,3.75
2023-03-05T22:16:10.976Z,2.97
2023-03-05T22:18:38.463Z,4.68
2023-03-05T22:21:14.306Z,4.85
2023-03-05T22:23:41.719Z,4.03
2023-03-05T22:26:09.234Z,3.28
2023-03-05T22:28:39.021Z,3.75
2023-03-05T22:31:06.564Z,4.10
2023-03-05T22:33:34.679Z,4.93
2023-03-05T22:36:09.312Z,5.10
2023-03-05T22:38:36.954Z,4.50
2023-03-05T22:41:09.029Z,4.10
2023-03-05T22:43:36.906Z,5.60
2023-03-05T22:46:18.991Z,5.00
2023-03-05T22:48:47.016Z,3.88
2023-03-05T22:51:16.102Z,2.95
2023-03-05T22:53:44.120Z,3.08
2023-03-05T22:56:14.855Z,3.97
2023-03-05T22:58:42.880Z,4.05
2023-03-05T23:01:14.474Z,3.83
2023-03-05T23:03:42.878Z,4.40
2023-03-05T23:06:10.839Z,4.30
2023-03-05T23:08:38.567Z,2.78
2023-03-05T23:11:13.320Z,3.20
2023-03-05T23:13:41.569Z,3.40
2023-03-05T23:16:09.813Z,5.82
2023-03-05T23:18:37.363Z,4.40
2023-03-05T23:21:04.796Z,4.47
2023-03-05T23:23:32.223Z,5.03
2023-03-05T23:25:59.836Z,4.80
2023-03-05T23:28:27.222Z,4.15
2023-03-05T23:30:54.743Z,3.80
2023-03-05T23:33:24.011Z,4.57
2023-03-05T23:35:52.918Z,3.70
2023-03-05T23:38:21.076Z,3.92
2023-03-05T23:40:50.992Z,3.85
2023-03-05T23:43:19.083Z,4.70
2023-03-05T23:45:48.811Z,4.75
2023-03-05T23:48:17.758Z,3.53
2023-03-05T23:50:47.842Z,4.18
2023-03-05T23:53:20.981Z,3.83
2023-03-05T23:55:49.187Z,4.80
2023-03-05T23:58:19.191Z,6.05
